sensor_id;sensor_type;location;lat;lon;timestamp;temperature;humidity
42187;DHT22;27858;51.414;0.018;2023-04-30T00:00:58;10.70;99.90
42187;DHT22;27858;51.414;0.018;2023-04-30T00:03:25;10.60;99.90
42187;DHT22;27858;51.414;0.018;2023-04-30T00:05:52;10.60;99.90
42187;DHT22;27858;51.414;0.018;2023-04-30T00:08:19;10.60;99.90
42187;DHT22;27858;51.414;0.018;2023-04-30T00:10:46;10.50;99.90
42187;DHT22;27858;51.414;0.018;2023-04-30T00:13:13;10.50;99.90
42187;DHT22;27858;51.414;0.018;2023-04-30T00:15:39;10.50;99.90
42187;DHT22;27858;51.414;0.018;2023-04-30T00:18:07;10.50;99.90
42187;DHT22;27858;51.414;0.018;2023-04-30T00:20:34;10.50;99.90
42187;DHT22;27858;51.414;0.018;2023-04-30T00:23:01;10.50;99.90
42187;DHT22;27858;51.414;0.018;2023-04-30T00:25:28;10.50;99.90
42187;DHT22;27858;51.414;0.018;2023-04-30T00:27:54;10.60;99.90
42187;DHT22;27858;51.414;0.018;2023-04-30T00:30:21;10.50;99.90
42187;DHT22;27858;51.414;0.018;2023-04-30T00:32:48;10.50;99.90
42187;DHT22;27858;51.414;0.018;2023-04-30T00:35:15;10.60;99.90
42187;DHT22;27858;51.414;0.018;2023-04-30T00:37:42;10.60;99.90
42187;DHT22;27858;51.414;0.018;2023-04-30T00:40:09;10.60;99.90
42187;DHT22;27858;51.414;0.018;2023-04-30T00:42:36;10.60;99.90
42187;DHT22;27858;51.414;0.018;2023-04-30T00:45:03;10.60;99.90
42187;DHT22;27858;51.414;0.018;2023-04-30T00:47:30;10.60;99.90
42187;DHT22;27858;51.414;0.018;2023-04-30T00:49:57;10.40;99.90
42187;DHT22;27858;51.414;0.018;2023-04-30T00:52:26;10.40;99.90
42187;DHT22;27858;51.414;0.018;2023-04-30T00:54:53;10.40;99.90
42187;DHT22;27858;51.414;0.018;2023-04-30T00:57:20;10.40;99.90
42187;DHT22;27858;51.414;0.018;2023-04-30T00:59:47;10.40;99.90
42187;DHT22;27858;51.414;0.018;2023-04-30T01:02:14;10.30;99.90
42187;DHT22;27858;51.414;0.018;2023-04-30T01:04:42;10.20;99.90
42187;DHT22;27858;51.414;0.018;2023-04-30T01:07:09;10.20;99.90
42187;DHT22;27858;51.414;0.018;2023-04-30T01:09:36;10.10;99.90
42187;DHT22;27858;51.414;0.018;2023-04-30T01:17:32;10.20;99.90
42187;DHT22;27858;51.414;0.018;2023-04-30T01:19:59;10.20;99.90
42187;DHT22;27858;51.414;0.018;2023-04-30T01:22:35;10.20;99.90
42187;DHT22;27858;51.414;0.018;2023-04-30T01:25:30;10.10;99.90
42187;DHT22;27858;51.414;0.018;2023-04-30T01:28:01;10.00;99.90
42187;DHT22;27858;51.414;0.018;2023-04-30T01:30:30;10.00;99.90
42187;DHT22;27858;51.414;0.018;2023-04-30T01:32:57;9.90;99.90
42187;DHT22;27858;51.414;0.018;2023-04-30T01:35:40;9.90;99.90
42187;DHT22;27858;51.414;0.018;2023-04-30T01:46:29;9.60;99.90
42187;DHT22;27858;51.414;0.018;2023-04-30T01:51:41;9.60;99.90
42187;DHT22;27858;51.414;0.018;2023-04-30T01:56:44;9.60;99.90
42187;DHT22;27858;51.414;0.018;2023-04-30T01:59:13;9.60;99.90
42187;DHT22;27858;51.414;0.018;2023-04-30T02:01:40;9.50;99.90
42187;DHT22;27858;51.414;0.018;2023-04-30T02:04:07;9.60;99.90
42187;DHT22;27858;51.414;0.018;2023-04-30T02:06:34;9.60;99.90
42187;DHT22;27858;51.414;0.018;2023-04-30T02:09:01;9.60;99.90
42187;DHT22;27858;51.414;0.018;2023-04-30T02:11:30;9.60;99.90
42187;DHT22;27858;51.414;0.018;2023-04-30T02:13:57;9.50;99.90
42187;DHT22;27858;51.414;0.018;2023-04-30T02:16:24;9.50;99.90
42187;DHT22;27858;51.414;0.018;2023-04-30T02:18:51;9.50;99.90
42187;DHT22;27858;51.414;0.018;2023-04-30T02:21:17;9.50;99.90
42187;DHT22;27858;51.414;0.018;2023-04-30T02:23:44;9.50;99.90
42187;DHT22;27858;51.414;0.018;2023-04-30T02:26:11;9.40;99.90
42187;DHT22;27858;51.414;0.018;2023-04-30T02:28:38;9.40;99.90
42187;DHT22;27858;51.414;0.018;2023-04-30T02:31:05;9.40;99.90
42187;DHT22;27858;51.414;0.018;2023-04-30T02:33:31;9.40;99.90
42187;DHT22;27858;51.414;0.018;2023-04-30T02:36:01;9.40;99.90
42187;DHT22;27858;51.414;0.018;2023-04-30T02:38:28;9.40;99.90
42187;DHT22;27858;51.414;0.018;2023-04-30T02:40:55;9.40;99.90
42187;DHT22;27858;51.414;0.018;2023-04-30T02:43:22;9.40;99.90
42187;DHT22;27858;51.414;0.018;2023-04-30T02:45:48;9.40;99.90
42187;DHT22;27858;51.414;0.018;2023-04-30T02:48:15;9.40;99.90
42187;DHT22;27858;51.414;0.018;2023-04-30T02:50:42;9.40;99.90
42187;DHT22;27858;51.414;0.018;2023-04-30T02:53:09;9.30;99.90
42187;DHT22;27858;51.414;0.018;2023-04-30T02:55:35;9.20;99.90
42187;DHT22;27858;51.414;0.018;2023-04-30T02:58:02;9.30;99.90
42187;DHT22;27858;51.414;0.018;2023-04-30T03:00:29;9.20;99.90
42187;DHT22;27858;51.414;0.018;2023-04-30T03:02:55;9.20;99.90
42187;DHT22;27858;51.414;0.018;2023-04-30T03:05:23;9.20;99.90
42187;DHT22;27858;51.414;0.018;2023-04-30T03:07:49;9.20;99.90
42187;DHT22;27858;51.414;0.018;2023-04-30T03:10:16;9.20;99.90
42187;DHT22;27858;51.414;0.018;2023-04-30T03:12:44;9.20;99.90
42187;DHT22;27858;51.414;0.018;2023-04-30T03:15:11;9.10;99.90
42187;DHT22;27858;51.414;0.018;2023-04-30T03:17:38;9.10;99.90
42187;DHT22;27858;51.414;0.018;2023-04-30T03:20:05;9.10;99.90
42187;DHT22;27858;51.414;0.018;2023-04-30T03:22:32;9.00;99.90
42187;DHT22;27858;51.414;0.018;2023-04-30T03:24:59;8.90;99.90
42187;DHT22;27858;51.414;0.018;2023-04-30T03:27:26;8.90;99.90
42187;DHT22;27858;51.414;0.018;2023-04-30T03:29:53;8.90;99.90
42187;DHT22;27858;51.414;0.018;2023-04-30T03:32:20;8.90;99.90
42187;DHT22;27858;51.414;0.018;2023-04-30T03:34:46;8.90;99.90
42187;DHT22;27858;51.414;0.018;2023-04-30T03:37:13;8.90;99.90
42187;DHT22;27858;51.414;0.018;2023-04-30T03:39:40;8.90;99.90
42187;DHT22;27858;51.414;0.018;2023-04-30T03:42:07;8.80;99.90
42187;DHT22;27858;51.414;0.018;2023-04-30T03:44:33;8.80;99.90
42187;DHT22;27858;51.414;0.018;2023-04-30T03:47:00;8.80;99.90
42187;DHT22;27858;51.414;0.018;2023-04-30T03:49:27;8.80;99.90
42187;DHT22;27858;51.414;0.018;2023-04-30T03:51:53;8.80;99.90
42187;DHT22;27858;51.414;0.018;2023-04-30T03:54:20;8.80;99.90
42187;DHT22;27858;51.414;0.018;2023-04-30T03:56:47;8.80;99.90
42187;DHT22;27858;51.414;0.018;2023-04-30T03:59:14;8.80;99.90
42187;DHT22;27858;51.414;0.018;2023-04-30T04:01:41;8.90;99.90
42187;DHT22;27858;51.414;0.018;2023-04-30T04:04:08;8.80;99.90
42187;DHT22;27858;51.414;0.018;2023-04-30T04:06:35;8.80;99.90
42187;DHT22;27858;51.414;0.018;2023-04-30T04:09:02;8.70;99.90
42187;DHT22;27858;51.414;0.018;2023-04-30T04:11:29;8.70;99.90
42187;DHT22;27858;51.414;0.018;2023-04-30T04:13:56;8.70;99.90
42187;DHT22;27858;51.414;0.018;2023-04-30T04:16:23;8.60;99.90
42187;DHT22;27858;51.414;0.018;2023-04-30T04:18:50;8.70;99.90
42187;DHT22;27858;51.414;0.018;2023-04-30T04:21:17;8.70;99.90
42187;DHT22;27858;51.414;0.018;2023-04-30T04:23:44;8.70;99.90
42187;DHT22;27858;51.414;0.018;2023-04-30T04:26:11;8.60;99.90
42187;DHT22;27858;51.414;0.018;2023-04-30T04:28:38;8.60;99.90
42187;DHT22;27858;51.414;0.018;2023-04-30T04:31:04;8.60;99.90
42187;DHT22;27858;51.414;0.018;2023-04-30T04:33:31;8.60;99.90
42187;DHT22;27858;51.414;0.018;2023-04-30T04:35:58;8.50;99.90
42187;DHT22;27858;51.414;0.018;2023-04-30T04:38:25;8.50;99.90
42187;DHT22;27858;51.414;0.018;2023-04-30T04:40:52;8.50;99.90
42187;DHT22;27858;51.414;0.018;2023-04-30T04:43:20;8.50;99.90
42187;DHT22;27858;51.414;0.018;2023-04-30T04:45:47;8.40;99.90
42187;DHT22;27858;51.414;0.018;2023-04-30T04:48:14;8.50;99.90
42187;DHT22;27858;51.414;0.018;2023-04-30T04:50:41;8.40;99.90
42187;DHT22;27858;51.414;0.018;2023-04-30T04:53:08;8.40;99.90
42187;DHT22;27858;51.414;0.018;2023-04-30T04:55:35;8.40;99.90
42187;DHT22;27858;51.414;0.018;2023-04-30T04:58:02;8.40;99.90
42187;DHT22;27858;51.414;0.018;2023-04-30T05:00:28;8.40;99.90
42187;DHT22;27858;51.414;0.018;2023-04-30T05:02:55;8.40;99.90
42187;DHT22;27858;51.414;0.018;2023-04-30T05:05:22;8.40;99.90
42187;DHT22;27858;51.414;0.018;2023-04-30T05:07:49;8.40;99.90
42187;DHT22;27858;51.414;0.018;2023-04-30T05:10:18;8.50;99.90
42187;DHT22;27858;51.414;0.018;2023-04-30T05:12:44;8.50;99.90
42187;DHT22;27858;51.414;0.018;2023-04-30T05:15:11;8.50;99.90
42187;DHT22;27858;51.414;0.018;2023-04-30T05:17:38;8.50;99.90
42187;DHT22;27858;51.414;0.018;2023-04-30T05:20:05;8.60;99.90
42187;DHT22;27858;51.414;0.018;2023-04-30T05:22:33;8.60;99.90
42187;DHT22;27858;51.414;0.018;2023-04-30T05:24:59;8.60;99.90
42187;DHT22;27858;51.414;0.018;2023-04-30T05:27:26;8.70;99.90
42187;DHT22;27858;51.414;0.018;2023-04-30T05:29:53;8.70;99.90
42187;DHT22;27858;51.414;0.018;2023-04-30T05:32:21;8.60;99.90
42187;DHT22;27858;51.414;0.018;2023-04-30T05:34:48;8.70;99.90
42187;DHT22;27858;51.414;0.018;2023-04-30T05:37:15;8.70;99.90
42187;DHT22;27858;51.414;0.018;2023-04-30T05:39:45;8.70;99.90
42187;DHT22;27858;51.414;0.018;2023-04-30T05:42:12;8.70;99.90
42187;DHT22;27858;51.414;0.018;2023-04-30T05:44:39;8.70;99.90
42187;DHT22;27858;51.414;0.018;2023-04-30T05:47:06;8.70;99.90
42187;DHT22;27858;51.414;0.018;2023-04-30T05:49:33;8.80;99.90
42187;DHT22;27858;51.414;0.018;2023-04-30T05:52:02;8.80;99.90
42187;DHT22;27858;51.414;0.018;2023-04-30T05:54:29;8.80;99.90
42187;DHT22;27858;51.414;0.018;2023-04-30T05:56:56;8.80;99.90
42187;DHT22;27858;51.414;0.018;2023-04-30T05:59:23;8.90;99.90
42187;DHT22;27858;51.414;0.018;2023-04-30T06:01:50;9.00;99.90
42187;DHT22;27858;51.414;0.018;2023-04-30T06:04:17;9.00;99.90
42187;DHT22;27858;51.414;0.018;2023-04-30T06:06:44;9.20;99.90
42187;DHT22;27858;51.414;0.018;2023-04-30T06:09:11;9.30;99.90
42187;DHT22;27858;51.414;0.018;2023-04-30T06:11:38;9.40;99.90
42187;DHT22;27858;51.414;0.018;2023-04-30T06:14:09;9.50;99.90
42187;DHT22;27858;51.414;0.018;2023-04-30T06:16:37;9.50;99.90
42187;DHT22;27858;51.414;0.018;2023-04-30T06:19:03;9.60;99.90
42187;DHT22;27858;51.414;0.018;2023-04-30T06:21:30;9.70;99.90
42187;DHT22;27858;51.414;0.018;2023-04-30T06:23:57;9.70;99.90
42187;DHT22;27858;51.414;0.018;2023-04-30T06:26:24;9.80;99.90
42187;DHT22;27858;51.414;0.018;2023-04-30T06:28:51;9.90;99.90
42187;DHT22;27858;51.414;0.018;2023-04-30T06:31:20;9.90;99.90
42187;DHT22;27858;51.414;0.018;2023-04-30T06:33:47;10.00;99.90
42187;DHT22;27858;51.414;0.018;2023-04-30T06:36:14;10.10;99.90
42187;DHT22;27858;51.414;0.018;2023-04-30T06:38:41;10.20;99.90
42187;DHT22;27858;51.414;0.018;2023-04-30T06:41:08;10.20;99.90
42187;DHT22;27858;51.414;0.018;2023-04-30T06:43:35;10.40;99.90
42187;DHT22;27858;51.414;0.018;2023-04-30T06:46:02;10.50;99.90
42187;DHT22;27858;51.414;0.018;2023-04-30T06:48:29;10.50;99.90
42187;DHT22;27858;51.414;0.018;2023-04-30T06:50:56;10.60;99.90
42187;DHT22;27858;51.414;0.018;2023-04-30T06:53:23;10.70;99.90
42187;DHT22;27858;51.414;0.018;2023-04-30T06:55:50;10.80;99.90
42187;DHT22;27858;51.414;0.018;2023-04-30T06:58:17;10.90;99.90
42187;DHT22;27858;51.414;0.018;2023-04-30T07:00:45;11.00;99.90
42187;DHT22;27858;51.414;0.018;2023-04-30T07:03:12;11.10;99.90
42187;DHT22;27858;51.414;0.018;2023-04-30T07:05:39;11.20;99.90
42187;DHT22;27858;51.414;0.018;2023-04-30T07:08:07;11.30;99.90
42187;DHT22;27858;51.414;0.018;2023-04-30T07:10:33;11.40;99.90
42187;DHT22;27858;51.414;0.018;2023-04-30T07:13:00;11.50;99.90
42187;DHT22;27858;51.414;0.018;2023-04-30T07:15:27;11.60;99.90
42187;DHT22;27858;51.414;0.018;2023-04-30T07:17:53;11.70;99.90
42187;DHT22;27858;51.414;0.018;2023-04-30T07:20:20;11.70;99.90
42187;DHT22;27858;51.414;0.018;2023-04-30T07:22:47;11.90;99.90
42187;DHT22;27858;51.414;0.018;2023-04-30T07:25:14;11.90;99.90
42187;DHT22;27858;51.414;0.018;2023-04-30T07:27:41;12.10;99.90
42187;DHT22;27858;51.414;0.018;2023-04-30T07:30:08;12.20;99.90
42187;DHT22;27858;51.414;0.018;2023-04-30T07:32:36;12.30;99.90
42187;DHT22;27858;51.414;0.018;2023-04-30T07:35:04;12.40;99.90
42187;DHT22;27858;51.414;0.018;2023-04-30T07:37:31;12.40;99.90
42187;DHT22;27858;51.414;0.018;2023-04-30T07:40:01;12.50;99.90
42187;DHT22;27858;51.414;0.018;2023-04-30T07:42:28;12.60;99.90
42187;DHT22;27858;51.414;0.018;2023-04-30T07:44:55;12.70;99.90
42187;DHT22;27858;51.414;0.018;2023-04-30T07:47:23;12.80;99.90
42187;DHT22;27858;51.414;0.018;2023-04-30T07:49:50;12.90;99.90
42187;DHT22;27858;51.414;0.018;2023-04-30T07:52:17;13.10;99.90
42187;DHT22;27858;51.414;0.018;2023-04-30T07:54:44;13.20;99.90
42187;DHT22;27858;51.414;0.018;2023-04-30T07:57:11;13.40;99.90
42187;DHT22;27858;51.414;0.018;2023-04-30T07:59:38;13.40;99.90
42187;DHT22;27858;51.414;0.018;2023-04-30T08:02:07;13.50;99.90
42187;DHT22;27858;51.414;0.018;2023-04-30T08:04:35;13.60;99.90
42187;DHT22;27858;51.414;0.018;2023-04-30T08:07:02;13.70;99.90
42187;DHT22;27858;51.414;0.018;2023-04-30T08:09:30;13.70;99.90
42187;DHT22;27858;51.414;0.018;2023-04-30T08:11:56;13.90;99.90
42187;DHT22;27858;51.414;0.018;2023-04-30T08:14:23;14.00;99.90
42187;DHT22;27858;51.414;0.018;2023-04-30T08:16:50;14.10;99.90
42187;DHT22;27858;51.414;0.018;2023-04-30T08:19:17;14.20;99.90
42187;DHT22;27858;51.414;0.018;2023-04-30T08:21:44;14.30;99.90
42187;DHT22;27858;51.414;0.018;2023-04-30T08:24:11;14.40;99.90
42187;DHT22;27858;51.414;0.018;2023-04-30T08:26:37;14.50;99.90
42187;DHT22;27858;51.414;0.018;2023-04-30T08:29:04;14.40;99.90
42187;DHT22;27858;51.414;0.018;2023-04-30T08:31:34;14.40;99.90
42187;DHT22;27858;51.414;0.018;2023-04-30T08:34:01;14.50;99.90
42187;DHT22;27858;51.414;0.018;2023-04-30T08:36:28;14.70;99.90
42187;DHT22;27858;51.414;0.018;2023-04-30T08:38:54;14.70;99.90
42187;DHT22;27858;51.414;0.018;2023-04-30T08:41:25;14.70;99.90
42187;DHT22;27858;51.414;0.018;2023-04-30T08:43:52;14.80;99.90
42187;DHT22;27858;51.414;0.018;2023-04-30T08:46:20;14.90;99.90
42187;DHT22;27858;51.414;0.018;2023-04-30T08:48:48;14.90;99.90
42187;DHT22;27858;51.414;0.018;2023-04-30T08:51:15;15.00;99.90
42187;DHT22;27858;51.414;0.018;2023-04-30T08:53:43;15.00;99.90
42187;DHT22;27858;51.414;0.018;2023-04-30T08:56:11;15.20;99.90
42187;DHT22;27858;51.414;0.018;2023-04-30T08:58:39;15.20;99.90
42187;DHT22;27858;51.414;0.018;2023-04-30T09:01:07;15.20;93.50
42187;DHT22;27858;51.414;0.018;2023-04-30T09:03:35;15.30;88.80
42187;DHT22;27858;51.414;0.018;2023-04-30T09:06:02;15.40;84.20
42187;DHT22;27858;51.414;0.018;2023-04-30T09:08:43;15.50;54.20
42187;DHT22;27858;51.414;0.018;2023-04-30T09:13:49;15.70;18.50
42187;DHT22;27858;51.414;0.018;2023-04-30T09:16:16;15.80;13.70
42187;DHT22;27858;51.414;0.018;2023-04-30T09:18:43;15.80;1.00
42187;DHT22;27858;51.414;0.018;2023-04-30T09:21:10;15.70;1.00
42187;DHT22;27858;51.414;0.018;2023-04-30T09:23:53;15.90;1.00
42187;DHT22;27858;51.414;0.018;2023-04-30T09:26:26;16.00;1.00
42187;DHT22;27858;51.414;0.018;2023-04-30T09:28:55;16.00;1.00
42187;DHT22;27858;51.414;0.018;2023-04-30T09:31:24;16.20;1.00
42187;DHT22;27858;51.414;0.018;2023-04-30T09:33:52;16.30;1.00
42187;DHT22;27858;51.414;0.018;2023-04-30T09:36:19;16.40;1.00
42187;DHT22;27858;51.414;0.018;2023-04-30T09:38:46;16.50;1.00
42187;DHT22;27858;51.414;0.018;2023-04-30T09:41:27;16.60;1.00
42187;DHT22;27858;51.414;0.018;2023-04-30T09:43:55;16.70;1.00
42187;DHT22;27858;51.414;0.018;2023-04-30T09:46:29;16.70;99.90
42187;DHT22;27858;51.414;0.018;2023-04-30T09:48:58;16.90;99.90
42187;DHT22;27858;51.414;0.018;2023-04-30T09:51:26;16.90;99.90
42187;DHT22;27858;51.414;0.018;2023-04-30T09:53:53;16.90;99.90
42187;DHT22;27858;51.414;0.018;2023-04-30T09:56:23;16.90;99.90
42187;DHT22;27858;51.414;0.018;2023-04-30T09:58:52;16.90;99.90
42187;DHT22;27858;51.414;0.018;2023-04-30T10:01:21;16.80;99.90
42187;DHT22;27858;51.414;0.018;2023-04-30T10:03:48;16.80;99.90
42187;DHT22;27858;51.414;0.018;2023-04-30T10:06:15;16.90;99.90
42187;DHT22;27858;51.414;0.018;2023-04-30T10:08:54;17.00;99.90
42187;DHT22;27858;51.414;0.018;2023-04-30T10:11:26;17.10;99.90
42187;DHT22;27858;51.414;0.018;2023-04-30T10:14:05;17.00;99.90
42187;DHT22;27858;51.414;0.018;2023-04-30T10:16:53;17.00;99.90
42187;DHT22;27858;51.414;0.018;2023-04-30T10:19:25;17.10;99.90
42187;DHT22;27858;51.414;0.018;2023-04-30T10:21:56;17.20;99.90
42187;DHT22;27858;51.414;0.018;2023-04-30T10:24:23;17.10;99.90
42187;DHT22;27858;51.414;0.018;2023-04-30T10:26:50;17.20;99.90
42187;DHT22;27858;51.414;0.018;2023-04-30T10:29:17;17.30;99.90
42187;DHT22;27858;51.414;0.018;2023-04-30T10:31:49;17.00;99.90
42187;DHT22;27858;51.414;0.018;2023-04-30T10:36:57;17.40;99.90
42187;DHT22;27858;51.414;0.018;2023-04-30T10:39:26;17.60;99.90
42187;DHT22;27858;51.414;0.018;2023-04-30T10:42:02;17.50;99.90
42187;DHT22;27858;51.414;0.018;2023-04-30T10:44:32;17.80;99.90
42187;DHT22;27858;51.414;0.018;2023-04-30T10:47:03;17.80;99.90
42187;DHT22;27858;51.414;0.018;2023-04-30T10:49:30;17.90;99.90
42187;DHT22;27858;51.414;0.018;2023-04-30T10:52:02;18.20;99.90
42187;DHT22;27858;51.414;0.018;2023-04-30T10:54:36;18.20;99.90
42187;DHT22;27858;51.414;0.018;2023-04-30T10:57:10;18.30;99.90
42187;DHT22;27858;51.414;0.018;2023-04-30T10:59:41;18.40;99.90
42187;DHT22;27858;51.414;0.018;2023-04-30T11:02:10;18.40;99.90
42187;DHT22;27858;51.414;0.018;2023-04-30T11:07:33;18.40;99.90
42187;DHT22;27858;51.414;0.018;2023-04-30T11:10:00;18.40;99.90
42187;DHT22;27858;51.414;0.018;2023-04-30T11:12:28;18.40;99.90
42187;DHT22;27858;51.414;0.018;2023-04-30T11:15:12;18.30;99.90
42187;DHT22;27858;51.414;0.018;2023-04-30T11:17:39;18.50;99.90
42187;DHT22;27858;51.414;0.018;2023-04-30T11:20:11;18.60;99.90
42187;DHT22;27858;51.414;0.018;2023-04-30T11:22:39;18.60;99.90
42187;DHT22;27858;51.414;0.018;2023-04-30T11:25:08;18.40;99.90
42187;DHT22;27858;51.414;0.018;2023-04-30T11:27:37;18.60;99.90
42187;DHT22;27858;51.414;0.018;2023-04-30T11:30:15;18.80;99.90
42187;DHT22;27858;51.414;0.018;2023-04-30T11:32:44;18.70;99.90
42187;DHT22;27858;51.414;0.018;2023-04-30T11:35:17;18.50;99.90
42187;DHT22;27858;51.414;0.018;2023-04-30T11:37:47;18.40;99.90
42187;DHT22;27858;51.414;0.018;2023-04-30T11:40:14;18.80;99.90
42187;DHT22;27858;51.414;0.018;2023-04-30T11:42:42;19.00;99.90
42187;DHT22;27858;51.414;0.018;2023-04-30T11:45:13;19.00;99.90
42187;DHT22;27858;51.414;0.018;2023-04-30T11:47:44;19.00;99.90
42187;DHT22;27858;51.414;0.018;2023-04-30T11:50:13;18.90;99.90
42187;DHT22;27858;51.414;0.018;2023-04-30T11:52:41;19.00;99.90
42187;DHT22;27858;51.414;0.018;2023-04-30T11:55:12;19.20;99.90
42187;DHT22;27858;51.414;0.018;2023-04-30T11:58:07;19.00;99.90
42187;DHT22;27858;51.414;0.018;2023-04-30T12:00:30;19.40;99.90
42187;DHT22;27858;51.414;0.018;2023-04-30T12:02:59;19.30;99.90
42187;DHT22;27858;51.414;0.018;2023-04-30T12:05:26;19.40;99.90
42187;DHT22;27858;51.414;0.018;2023-04-30T12:07:59;19.60;99.90
42187;DHT22;27858;51.414;0.018;2023-04-30T12:10:26;19.50;99.90
42187;DHT22;27858;51.414;0.018;2023-04-30T12:12:53;19.50;99.90
42187;DHT22;27858;51.414;0.018;2023-04-30T12:15:22;19.10;99.90
42187;DHT22;27858;51.414;0.018;2023-04-30T12:17:56;19.20;99.90
42187;DHT22;27858;51.414;0.018;2023-04-30T12:20:26;19.40;99.90
42187;DHT22;27858;51.414;0.018;2023-04-30T12:22:53;19.50;99.90
42187;DHT22;27858;51.414;0.018;2023-04-30T12:25:23;19.60;99.90
42187;DHT22;27858;51.414;0.018;2023-04-30T12:27:51;19.60;99.90
42187;DHT22;27858;51.414;0.018;2023-04-30T12:30:20;19.70;99.90
42187;DHT22;27858;51.414;0.018;2023-04-30T12:32:49;19.60;99.90
42187;DHT22;27858;51.414;0.018;2023-04-30T12:35:20;19.60;99.90
42187;DHT22;27858;51.414;0.018;2023-04-30T12:37:52;19.30;99.90
42187;DHT22;27858;51.414;0.018;2023-04-30T12:40:24;18.90;99.90
42187;DHT22;27858;51.414;0.018;2023-04-30T12:43:05;19.20;99.90
42187;DHT22;27858;51.414;0.018;2023-04-30T12:45:52;19.30;99.90
42187;DHT22;27858;51.414;0.018;2023-04-30T12:48:21;19.40;99.90
42187;DHT22;27858;51.414;0.018;2023-04-30T12:50:54;19.30;99.90
42187;DHT22;27858;51.414;0.018;2023-04-30T12:53:21;19.40;99.90
42187;DHT22;27858;51.414;0.018;2023-04-30T12:56:15;19.30;99.90
42187;DHT22;27858;51.414;0.018;2023-04-30T12:58:43;19.10;99.90
42187;DHT22;27858;51.414;0.018;2023-04-30T13:01:21;19.20;99.90
42187;DHT22;27858;51.414;0.018;2023-04-30T13:03:51;19.20;99.90
42187;DHT22;27858;51.414;0.018;2023-04-30T13:06:20;19.50;99.90
42187;DHT22;27858;51.414;0.018;2023-04-30T13:08:48;19.70;99.90
42187;DHT22;27858;51.414;0.018;2023-04-30T13:11:24;19.90;99.90
42187;DHT22;27858;51.414;0.018;2023-04-30T13:13:52;19.50;99.90
42187;DHT22;27858;51.414;0.018;2023-04-30T13:16:21;19.70;99.90
42187;DHT22;27858;51.414;0.018;2023-04-30T13:18:50;20.00;99.90
42187;DHT22;27858;51.414;0.018;2023-04-30T13:21:17;20.30;99.90
42187;DHT22;27858;51.414;0.018;2023-04-30T13:23:44;20.40;99.90
42187;DHT22;27858;51.414;0.018;2023-04-30T13:26:19;20.60;99.90
42187;DHT22;27858;51.414;0.018;2023-04-30T13:28:48;20.10;99.90
42187;DHT22;27858;51.414;0.018;2023-04-30T13:31:15;19.60;99.90
42187;DHT22;27858;51.414;0.018;2023-04-30T13:33:41;19.50;99.90
42187;DHT22;27858;51.414;0.018;2023-04-30T13:36:09;19.80;99.90
42187;DHT22;27858;51.414;0.018;2023-04-30T13:38:35;19.90;99.90
42187;DHT22;27858;51.414;0.018;2023-04-30T13:41:05;20.40;99.90
42187;DHT22;27858;51.414;0.018;2023-04-30T13:43:32;20.30;99.90
42187;DHT22;27858;51.414;0.018;2023-04-30T13:45:58;20.00;99.90
42187;DHT22;27858;51.414;0.018;2023-04-30T13:48:25;20.30;99.90
42187;DHT22;27858;51.414;0.018;2023-04-30T13:50:53;20.30;99.90
42187;DHT22;27858;51.414;0.018;2023-04-30T13:53:20;20.50;99.90
42187;DHT22;27858;51.414;0.018;2023-04-30T13:55:46;20.70;99.90
42187;DHT22;27858;51.414;0.018;2023-04-30T13:58:14;21.00;99.90
42187;DHT22;27858;51.414;0.018;2023-04-30T14:00:41;21.00;99.90
42187;DHT22;27858;51.414;0.018;2023-04-30T14:03:08;20.80;99.90
42187;DHT22;27858;51.414;0.018;2023-04-30T14:05:35;20.40;99.90
42187;DHT22;27858;51.414;0.018;2023-04-30T14:08:03;20.30;99.90
42187;DHT22;27858;51.414;0.018;2023-04-30T14:10:31;20.50;99.90
42187;DHT22;27858;51.414;0.018;2023-04-30T14:12:58;20.30;99.90
42187;DHT22;27858;51.414;0.018;2023-04-30T14:15:25;20.60;99.90
42187;DHT22;27858;51.414;0.018;2023-04-30T14:17:55;21.00;99.90
42187;DHT22;27858;51.414;0.018;2023-04-30T14:20:22;20.40;99.90
42187;DHT22;27858;51.414;0.018;2023-04-30T14:22:50;20.30;99.90
42187;DHT22;27858;51.414;0.018;2023-04-30T14:25:17;20.30;99.90
42187;DHT22;27858;51.414;0.018;2023-04-30T14:27:45;20.60;99.90
42187;DHT22;27858;51.414;0.018;2023-04-30T14:30:12;20.60;99.90
42187;DHT22;27858;51.414;0.018;2023-04-30T14:32:39;20.60;99.90
42187;DHT22;27858;51.414;0.018;2023-04-30T14:35:07;20.60;99.90
42187;DHT22;27858;51.414;0.018;2023-04-30T14:37:33;20.60;99.90
42187;DHT22;27858;51.414;0.018;2023-04-30T14:40:00;20.70;99.90
42187;DHT22;27858;51.414;0.018;2023-04-30T14:42:28;20.60;99.90
42187;DHT22;27858;51.414;0.018;2023-04-30T14:44:55;20.60;99.90
42187;DHT22;27858;51.414;0.018;2023-04-30T14:47:21;20.60;99.90
42187;DHT22;27858;51.414;0.018;2023-04-30T14:49:52;20.40;99.90
42187;DHT22;27858;51.414;0.018;2023-04-30T14:52:20;20.50;99.90
42187;DHT22;27858;51.414;0.018;2023-04-30T14:54:46;20.40;99.90
42187;DHT22;27858;51.414;0.018;2023-04-30T14:57:13;20.10;99.90
42187;DHT22;27858;51.414;0.018;2023-04-30T14:59:40;20.00;99.90
42187;DHT22;27858;51.414;0.018;2023-04-30T15:02:07;20.20;99.90
42187;DHT22;27858;51.414;0.018;2023-04-30T15:04:34;20.00;99.90
42187;DHT22;27858;51.414;0.018;2023-04-30T15:07:01;20.20;99.90
42187;DHT22;27858;51.414;0.018;2023-04-30T15:09:28;19.80;99.90
42187;DHT22;27858;51.414;0.018;2023-04-30T15:11:55;19.90;99.90
42187;DHT22;27858;51.414;0.018;2023-04-30T15:14:21;19.80;99.90
42187;DHT22;27858;51.414;0.018;2023-04-30T15:16:48;20.00;99.90
42187;DHT22;27858;51.414;0.018;2023-04-30T15:19:15;19.30;99.90
42187;DHT22;27858;51.414;0.018;2023-04-30T15:21:42;19.30;99.90
42187;DHT22;27858;51.414;0.018;2023-04-30T15:24:09;19.30;99.90
42187;DHT22;27858;51.414;0.018;2023-04-30T15:26:35;19.30;99.90
42187;DHT22;27858;51.414;0.018;2023-04-30T15:29:02;19.60;99.90
42187;DHT22;27858;51.414;0.018;2023-04-30T15:31:29;19.30;99.90
42187;DHT22;27858;51.414;0.018;2023-04-30T15:33:58;19.30;99.90
42187;DHT22;27858;51.414;0.018;2023-04-30T15:36:25;19.40;99.90
42187;DHT22;27858;51.414;0.018;2023-04-30T15:38:52;19.40;99.90
42187;DHT22;27858;51.414;0.018;2023-04-30T15:41:19;19.60;99.90
42187;DHT22;27858;51.414;0.018;2023-04-30T15:43:47;19.80;99.90
42187;DHT22;27858;51.414;0.018;2023-04-30T15:46:13;20.00;99.90
42187;DHT22;27858;51.414;0.018;2023-04-30T15:48:40;20.10;99.90
42187;DHT22;27858;51.414;0.018;2023-04-30T15:51:07;19.90;99.90
42187;DHT22;27858;51.414;0.018;2023-04-30T15:53:34;19.70;99.90
42187;DHT22;27858;51.414;0.018;2023-04-30T15:56:01;19.80;99.90
42187;DHT22;27858;51.414;0.018;2023-04-30T15:58:29;19.70;99.90
42187;DHT22;27858;51.414;0.018;2023-04-30T16:00:56;19.70;99.90
42187;DHT22;27858;51.414;0.018;2023-04-30T16:03:23;19.60;99.90
42187;DHT22;27858;51.414;0.018;2023-04-30T16:05:50;19.20;99.90
42187;DHT22;27858;51.414;0.018;2023-04-30T16:08:17;19.10;99.90